Map

Track Data

SID SEASON NUMBER BASIN SUBBASIN NAME ISO_TIME NATURE LAT LON WMO_WIND WMO_PRES WMO_AGENCY TRACK_TYPE DIST2LAND LANDFALL IFLAG USA_AGENCY USA_ATCF_ID USA_LAT USA_LON USA_RECORD USA_STATUS USA_WIND USA_PRES USA_SSHS USA_R34_NE USA_R34_SE USA_R34_SW USA_R34_NW USA_R50_NE USA_R50_SE USA_R50_SW USA_R50_NW USA_R64_NE USA_R64_SE USA_R64_SW USA_R64_NW USA_POCI USA_ROCI USA_RMW USA_EYE TOKYO_LAT TOKYO_LON TOKYO_GRADE TOKYO_WIND TOKYO_PRES TOKYO_R50_DIR TOKYO_R50_LONG TOKYO_R50_SHORT TOKYO_R30_DIR TOKYO_R30_LONG TOKYO_R30_SHORT TOKYO_LAND CMA_LAT CMA_LON CMA_CAT CMA_WIND CMA_PRES HKO_LAT HKO_LON HKO_CAT HKO_WIND HKO_PRES NEWDELHI_LAT NEWDELHI_LON NEWDELHI_GRADE NEWDELHI_WIND NEWDELHI_PRES NEWDELHI_CI NEWDELHI_DP NEWDELHI_POCI REUNION_LAT REUNION_LON REUNION_TYPE REUNION_WIND REUNION_PRES REUNION_TNUM REUNION_CI REUNION_RMW REUNION_R34_NE REUNION_R34_SE REUNION_R34_SW REUNION_R34_NW REUNION_R50_NE REUNION_R50_SE REUNION_R50_SW REUNION_R50_NW REUNION_R64_NE REUNION_R64_SE REUNION_R64_SW REUNION_R64_NW BOM_LAT BOM_LON BOM_TYPE BOM_WIND BOM_PRES BOM_TNUM BOM_CI BOM_RMW BOM_R34_NE BOM_R34_SE BOM_R34_SW BOM_R34_NW BOM_R50_NE BOM_R50_SE BOM_R50_SW BOM_R50_NW BOM_R64_NE BOM_R64_SE BOM_R64_SW BOM_R64_NW BOM_ROCI BOM_POCI BOM_EYE BOM_POS_METHOD BOM_PRES_METHOD NADI_LAT NADI_LON NADI_CAT NADI_WIND NADI_PRES WELLINGTON_LAT WELLINGTON_LON WELLINGTON_WIND WELLINGTON_PRES DS824_LAT DS824_LON DS824_STAGE DS824_WIND DS824_PRES TD9636_LAT TD9636_LON TD9636_STAGE TD9636_WIND TD9636_PRES TD9635_LAT TD9635_LON TD9635_WIND TD9635_PRES TD9635_ROCI NEUMANN_LAT NEUMANN_LON NEUMANN_CLASS NEUMANN_WIND NEUMANN_PRES MLC_LAT MLC_LON MLC_CLASS MLC_WIND MLC_PRES USA_GUST BOM_GUST BOM_GUST_PER REUNION_GUST REUNION_GUST_PER USA_SEAHGT USA_SEARAD_NE USA_SEARAD_SE USA_SEARAD_SW USA_SEARAD_NW STORM_SPEED STORM_DIR
1986006N03087 1986 2 NI BB NOT_NAMED 1986-01-06 00:00:00 NR 3.00000 87.0000 main 706 672 __________O___ -1 3.00000 87.0000 0 7 290
1986006N03087 1986 2 NI BB NOT_NAMED 1986-01-06 03:00:00 NR 3.11239 86.6863 main 672 639 __________P___ -1 3.11239 86.6863 0 7 290
1986006N03087 1986 2 NI BB NOT_NAMED 1986-01-06 06:00:00 NR 3.22593 86.3774 main 639 605 __________P___ -1 3.22593 86.3774 0 7 291
1986006N03087 1986 2 NI BB NOT_NAMED 1986-01-06 09:00:00 NR 3.34183 86.0782 main 605 565 __________P___ -1 3.34183 86.0782 0 6 292
1986006N03087 1986 2 NI BB NOT_NAMED 1986-01-06 12:00:00 NR 3.46132 85.7937 main 565 532 __________P___ -1 3.46132 85.7937 0 6 294
1986006N03087 1986 2 NI BB NOT_NAMED 1986-01-06 15:00:00 NR 3.58563 85.5287 main 532 507 __________P___ -1 3.58563 85.5287 0 6 297
1986006N03087 1986 2 NI BB NOT_NAMED 1986-01-06 18:00:00 NR 3.71602 85.2881 main 507 483 __________P___ -1 3.71602 85.2881 0 5 301
1986006N03087 1986 2 NI BB NOT_NAMED 1986-01-06 21:00:00 NR 3.85372 85.0770 main 476 451 __________P___ -1 3.85372 85.0770 0 5 306
1986006N03087 1986 2 NI BB NOT_NAMED 1986-01-07 00:00:00 NR 4.00000 84.9000 main 451 436 __________O___ -1 4.00000 84.9000 1 4 314
1986006N03087 1986 2 NI BB NOT_NAMED 1986-01-07 03:00:00 NR 4.15461 84.7586 main 429 405 __________P___ -1 4.15461 84.7586 1 4 319
1986006N03087 1986 2 NI BB NOT_NAMED 1986-01-07 06:00:00 NR 4.30906 84.6315 main 405 389 O_________P___ jtwc_io IO011986 4.30000 84.6000 25 -1 4.31132 84.6394 1 4 318
1986006N03087 1986 2 NI BB NOT_NAMED 1986-01-07 09:00:00 NR 4.43742 84.5003 main 389 367 P_________P___ IO011986 4.38751 84.4500 27 -1 4.46237 84.5255 1 4 312
1986006N03087 1986 2 NI BB NOT_NAMED 1986-01-07 12:00:00 NR 4.55714 84.3571 main 367 342 O_________O___ jtwc_io IO011986 4.50000 84.3000 30 -1 4.60000 84.4000 1 25 4 308
1986006N03087 1986 2 NI BB NOT_NAMED 1986-01-07 15:00:00 NR 4.68016 84.1926 main 342 318 P_________P___ IO011986 4.65000 84.1500 32 -1 4.71032 84.2353 1 28 4 307
1986006N03087 1986 2 NI BB NOT_NAMED 1986-01-07 18:00:00 NR 4.80376 84.0287 main 318 302 O_________P___ jtwc_io IO011986 4.80000 84.0000 35 0 4.80751 84.0575 1 32 4 303
1986006N03087 1986 2 NI BB NOT_NAMED 1986-01-07 21:00:00 NR 4.90047 83.8592 main 302 278 P_________P___ IO011986 4.90000 83.8425 37 0 4.90095 83.8759 1 36 4 301
1986006N03087 1986 2 NI BB NOT_NAMED 1986-01-08 00:00:00 NR 5.00000 83.7000 main 278 262 O_________O___ jtwc_io IO011986 5.00000 83.7000 40 0 5.00000 83.7000 2 40 4 309
1986006N03087 1986 2 NI BB NOT_NAMED 1986-01-08 03:00:00 NR 5.13389 83.5694 main 262 231 P_________P___ IO011986 5.14999 83.6000 42 0 5.11780 83.5387 2 40 4 317
1986006N03087 1986 2 NI BB NOT_NAMED 1986-01-08 06:00:00 NR 5.27124 83.4425 main 231 215 O_________P___ jtwc_io IO011986 5.30000 83.5000 45 0 5.24248 83.3850 2 40 4 313
1986006N03087 1986 2 NI BB NOT_NAMED 1986-01-08 09:00:00 NR 5.38546 83.2981 main 215 200 P_________P___ IO011986 5.40000 83.3575 42 0 5.37093 83.2387 2 40 4 308
1986006N03087 1986 2 NI BB NOT_NAMED 1986-01-08 12:00:00 NR 5.50000 83.1500 main 200 175 O_________O___ jtwc_io IO011986 5.50000 83.2000 40 0 5.50000 83.1000 2 40 4 309
1986006N03087 1986 2 NI BB NOT_NAMED 1986-01-08 15:00:00 NR 5.62766 82.9991 main 175 154 P_________P___ IO011986 5.64250 83.0425 37 0 5.61281 82.9556 2 38 4 313
1986006N03087 1986 2 NI BB NOT_NAMED 1986-01-08 18:00:00 NR 5.76375 82.8600 main 154 139 O_________P___ jtwc_io IO011986 5.80000 82.9000 35 0 5.72750 82.8200 2 37 4 317
1986006N03087 1986 2 NI BB NOT_NAMED 1986-01-08 21:00:00 NR 5.89797 82.7459 main 129 124 P_________P___ IO011986 5.94249 82.7925 35 0 5.85344 82.6994 2 36 4 324
1986006N03087 1986 2 NI BB NOT_NAMED 1986-01-09 00:00:00 NR 6.05000 82.6500 main 119 105 O_________O___ jtwc_io IO011986 6.10000 82.7000 35 0 6.00000 82.6000 2 35 4 331
1986006N03087 1986 2 NI BB NOT_NAMED 1986-01-09 03:00:00 NR 6.23546 82.5564 main 105 89 P_________P___ IO011986 6.29250 82.5925 35 0 6.17842 82.5203 2 35 4 336
1986006N03087 1986 2 NI BB NOT_NAMED 1986-01-09 06:00:00 NR 6.43874 82.4812 main 89 70 O_________P___ jtwc_io IO011986 6.50000 82.5000 35 0 6.37749 82.4625 2 35 4 343
1986006N03087 1986 2 NI BB NOT_NAMED 1986-01-09 09:00:00 NR 6.64390 82.4292 main 70 59 P_________P___ IO011986 6.70000 82.4350 35 0 6.58781 82.4234 2 35 4 349
1986006N03087 1986 2 NI BB NOT_NAMED 1986-01-09 12:00:00 NR 6.85000 82.4000 main 56 55 O_________O___ jtwc_io IO011986 6.90000 82.4000 35 0 6.80000 82.4000 2 35 4 354
1986006N03087 1986 2 NI BB NOT_NAMED 1986-01-09 15:00:00 NR 7.03173 82.3870 main 55 55 P_________P___ IO011986 7.10000 82.3925 35 0 6.96345 82.3816 2 35 4 357
1986006N03087 1986 2 NI BB NOT_NAMED 1986-01-09 18:00:00 NR 7.21626 82.3888 main 59 59 O_________P___ jtwc_io IO011986 7.30000 82.4000 35 0 7.13252 82.3775 2 35 4 0
1986006N03087 1986 2 NI BB NOT_NAMED 1986-01-09 21:00:00 NR 7.41017 82.3923 main 66 66 P_________P___ IO011986 7.48500 82.4000 35 0 7.33533 82.3847 2 35 4 0
1986006N03087 1986 2 NI BB NOT_NAMED 1986-01-10 00:00:00 NR 7.65000 82.4000 main 67 67 O_________O___ jtwc_io IO011986 7.70000 82.4000 35 0 7.60000 82.4000 2 35 6 0
1986006N03087 1986 2 NI BB NOT_NAMED 1986-01-10 03:00:00 NR 7.96548 82.4031 main 79 79 P_________P___ IO011986 7.96250 82.3925 35 0 7.96845 82.4138 2 33 7 1
1986006N03087 1986 2 NI BB NOT_NAMED 1986-01-10 06:00:00 NR 8.34877 82.4175 main 94 94 O_________P___ jtwc_io IO011986 8.30000 82.4000 35 0 8.39753 82.4350 2 32 8 3
1986006N03087 1986 2 NI BB NOT_NAMED 1986-01-10 09:00:00 NR 8.79392 82.4531 main 129 129 P_________P___ IO011986 8.73500 82.4425 32 -1 8.85284 82.4638 2 31 9 5
1986006N03087 1986 2 NI BB NOT_NAMED 1986-01-10 12:00:00 NR 9.25000 82.5000 main 157 157 O_________O___ jtwc_io IO011986 9.20000 82.5000 30 -1 9.30000 82.5000 1 30 9 6
1986006N03087 1986 2 NI BB NOT_NAMED 1986-01-10 15:00:00 NR 9.66357 82.5467 main 181 181 P_________P___ IO011986 9.61500 82.5500 30 -1 9.71215 82.5434 1 30 8 7
1986006N03087 1986 2 NI BB NOT_NAMED 1986-01-10 18:00:00 NR 10.0396 82.5967 main 211 211 O_________P___ jtwc_io IO011986 10.0000 82.6000 30 -1 10.0924 82.5924 1 30 7 7
1986006N03087 1986 2 NI BB NOT_NAMED 1986-01-10 21:00:00 NR 10.3838 82.6385 main 232 232 P_________P___ IO011986 10.3500 82.6351 30 -1 10.4515 82.6452 1 30 7 9
1986006N03087 1986 2 NI BB NOT_NAMED 1986-01-11 00:00:00 NR 10.7250 82.7000 main 260 260 O_________O___ jtwc_io IO011986 10.7000 82.7000 30 -1 10.8000 82.7000 1 30 7 15
1986006N03087 1986 2 NI BB NOT_NAMED 1986-01-11 03:00:00 NR 11.0875 82.8298 main 297 297 P_____________ IO011986 11.0875 82.8298 27 -1 1 8 21
1986006N03087 1986 2 NI BB NOT_NAMED 1986-01-11 06:00:00 NR 11.5000 83.0000 main 324 O_____________ jtwc_io IO011986 11.5000 83.0000 25 -1 1 9 22

About IBTrACS Database

This database is a web-friendly format of International Best Track Archive for Climate Stewardship (IBTrACS), a global best track data archive curated by NOAA dating back to 1842.

Updated: 2021-12-08